sensor_id;sensor_type;location;lat;lon;timestamp;temperature;humidity
24252;DHT22;12380;51.118;4.176;2023-02-14T00:01:40;5.50;99.90
24252;DHT22;12380;51.118;4.176;2023-02-14T00:04:06;5.50;99.90
24252;DHT22;12380;51.118;4.176;2023-02-14T00:06:34;5.40;99.90
24252;DHT22;12380;51.118;4.176;2023-02-14T00:09:01;5.40;99.90
24252;DHT22;12380;51.118;4.176;2023-02-14T00:11:27;5.40;99.90
24252;DHT22;12380;51.118;4.176;2023-02-14T00:13:53;5.40;99.90
24252;DHT22;12380;51.118;4.176;2023-02-14T00:16:37;5.40;99.90
24252;DHT22;12380;51.118;4.176;2023-02-14T00:19:02;5.30;99.90
24252;DHT22;12380;51.118;4.176;2023-02-14T00:21:29;5.30;99.90
24252;DHT22;12380;51.118;4.176;2023-02-14T00:23:54;5.00;99.90
24252;DHT22;12380;51.118;4.176;2023-02-14T00:26:20;4.70;99.90
24252;DHT22;12380;51.118;4.176;2023-02-14T00:28:45;4.50;99.90
24252;DHT22;12380;51.118;4.176;2023-02-14T00:31:11;4.50;99.90
24252;DHT22;12380;51.118;4.176;2023-02-14T00:33:36;4.50;99.90
24252;DHT22;12380;51.118;4.176;2023-02-14T00:36:03;4.50;99.90
24252;DHT22;12380;51.118;4.176;2023-02-14T00:38:29;4.60;99.90
24252;DHT22;12380;51.118;4.176;2023-02-14T00:40:55;4.60;99.90
24252;DHT22;12380;51.118;4.176;2023-02-14T00:43:20;4.60;99.90
24252;DHT22;12380;51.118;4.176;2023-02-14T00:45:46;4.70;99.90
24252;DHT22;12380;51.118;4.176;2023-02-14T00:48:13;4.70;99.90
24252;DHT22;12380;51.118;4.176;2023-02-14T00:50:39;4.60;99.90
24252;DHT22;12380;51.118;4.176;2023-02-14T00:53:05;4.40;99.90
24252;DHT22;12380;51.118;4.176;2023-02-14T00:55:30;4.50;99.90
24252;DHT22;12380;51.118;4.176;2023-02-14T00:57:56;4.40;99.90
24252;DHT22;12380;51.118;4.176;2023-02-14T01:00:21;4.20;99.90
24252;DHT22;12380;51.118;4.176;2023-02-14T01:02:47;4.20;99.90
24252;DHT22;12380;51.118;4.176;2023-02-14T01:05:13;4.20;99.90
24252;DHT22;12380;51.118;4.176;2023-02-14T01:07:38;4.10;99.90
24252;DHT22;12380;51.118;4.176;2023-02-14T01:10:04;3.90;99.90
24252;DHT22;12380;51.118;4.176;2023-02-14T01:12:30;3.80;99.90
24252;DHT22;12380;51.118;4.176;2023-02-14T01:14:55;3.80;99.90
24252;DHT22;12380;51.118;4.176;2023-02-14T01:17:21;3.80;99.90
24252;DHT22;12380;51.118;4.176;2023-02-14T01:19:49;4.10;99.90
24252;DHT22;12380;51.118;4.176;2023-02-14T01:22:15;4.30;99.90
24252;DHT22;12380;51.118;4.176;2023-02-14T01:24:43;4.30;99.90
24252;DHT22;12380;51.118;4.176;2023-02-14T01:27:09;4.40;99.90
24252;DHT22;12380;51.118;4.176;2023-02-14T01:29:37;4.50;99.90
24252;DHT22;12380;51.118;4.176;2023-02-14T01:32:05;4.50;99.90
24252;DHT22;12380;51.118;4.176;2023-02-14T01:34:31;4.40;99.90
24252;DHT22;12380;51.118;4.176;2023-02-14T01:36:56;4.40;99.90
24252;DHT22;12380;51.118;4.176;2023-02-14T01:39:22;4.30;99.90
24252;DHT22;12380;51.118;4.176;2023-02-14T01:41:47;4.20;99.90
24252;DHT22;12380;51.118;4.176;2023-02-14T01:46:39;4.00;99.90
24252;DHT22;12380;51.118;4.176;2023-02-14T01:49:10;3.90;99.90
24252;DHT22;12380;51.118;4.176;2023-02-14T01:51:38;4.00;99.90
24252;DHT22;12380;51.118;4.176;2023-02-14T01:54:05;3.90;99.90
24252;DHT22;12380;51.118;4.176;2023-02-14T01:56:33;3.90;99.90
24252;DHT22;12380;51.118;4.176;2023-02-14T01:59:03;4.00;99.90
24252;DHT22;12380;51.118;4.176;2023-02-14T02:01:30;4.00;99.90
24252;DHT22;12380;51.118;4.176;2023-02-14T02:03:57;3.80;99.90
24252;DHT22;12380;51.118;4.176;2023-02-14T02:06:31;3.70;99.90
24252;DHT22;12380;51.118;4.176;2023-02-14T02:11:34;3.70;99.90
24252;DHT22;12380;51.118;4.176;2023-02-14T02:14:02;3.80;99.90
24252;DHT22;12380;51.118;4.176;2023-02-14T02:16:41;3.70;99.90
24252;DHT22;12380;51.118;4.176;2023-02-14T02:19:16;3.70;99.90
24252;DHT22;12380;51.118;4.176;2023-02-14T02:27:20;3.70;99.90
24252;DHT22;12380;51.118;4.176;2023-02-14T02:32:57;3.70;99.90
24252;DHT22;12380;51.118;4.176;2023-02-14T02:35:16;3.70;99.90
24252;DHT22;12380;51.118;4.176;2023-02-14T02:40:28;3.80;99.90
24252;DHT22;12380;51.118;4.176;2023-02-14T02:51:20;3.80;99.90
24252;DHT22;12380;51.118;4.176;2023-02-14T02:54:07;3.70;99.90
24252;DHT22;12380;51.118;4.176;2023-02-14T02:56:38;3.60;99.90
24252;DHT22;12380;51.118;4.176;2023-02-14T02:59:15;3.60;99.90
24252;DHT22;12380;51.118;4.176;2023-02-14T03:01:52;3.60;99.90
24252;DHT22;12380;51.118;4.176;2023-02-14T03:04:21;3.70;99.90
24252;DHT22;12380;51.118;4.176;2023-02-14T03:07:06;3.70;99.90
24252;DHT22;12380;51.118;4.176;2023-02-14T03:09:56;3.70;99.90
24252;DHT22;12380;51.118;4.176;2023-02-14T03:12:38;3.70;99.90
24252;DHT22;12380;51.118;4.176;2023-02-14T03:20:33;3.40;99.90
24252;DHT22;12380;51.118;4.176;2023-02-14T03:28:23;3.50;99.90
24252;DHT22;12380;51.118;4.176;2023-02-14T03:36:21;3.50;99.90
24252;DHT22;12380;51.118;4.176;2023-02-14T03:41:17;3.60;99.90
24252;DHT22;12380;51.118;4.176;2023-02-14T03:43:50;3.60;99.90
24252;DHT22;12380;51.118;4.176;2023-02-14T03:46:18;3.60;99.90
24252;DHT22;12380;51.118;4.176;2023-02-14T03:48:44;3.60;99.90
24252;DHT22;12380;51.118;4.176;2023-02-14T03:51:14;3.60;99.90
24252;DHT22;12380;51.118;4.176;2023-02-14T03:53:44;3.70;99.90
24252;DHT22;12380;51.118;4.176;2023-02-14T03:56:22;3.70;99.90
24252;DHT22;12380;51.118;4.176;2023-02-14T03:58:52;3.70;99.90
24252;DHT22;12380;51.118;4.176;2023-02-14T04:01:20;3.80;99.90
24252;DHT22;12380;51.118;4.176;2023-02-14T04:03:47;3.90;99.90
24252;DHT22;12380;51.118;4.176;2023-02-14T04:06:15;3.90;99.90
24252;DHT22;12380;51.118;4.176;2023-02-14T04:08:41;3.90;99.90
24252;DHT22;12380;51.118;4.176;2023-02-14T04:11:06;3.90;99.90
24252;DHT22;12380;51.118;4.176;2023-02-14T04:13:33;3.90;99.90
24252;DHT22;12380;51.118;4.176;2023-02-14T04:15:58;3.80;99.90
24252;DHT22;12380;51.118;4.176;2023-02-14T04:18:26;3.70;99.90
24252;DHT22;12380;51.118;4.176;2023-02-14T04:21:11;3.60;99.90
24252;DHT22;12380;51.118;4.176;2023-02-14T04:23:36;3.50;99.90
24252;DHT22;12380;51.118;4.176;2023-02-14T04:26:02;3.50;99.90
24252;DHT22;12380;51.118;4.176;2023-02-14T04:28:30;3.50;99.90
24252;DHT22;12380;51.118;4.176;2023-02-14T04:30:59;3.50;99.90
24252;DHT22;12380;51.118;4.176;2023-02-14T04:33:25;3.30;99.90
24252;DHT22;12380;51.118;4.176;2023-02-14T04:35:50;3.30;99.90
24252;DHT22;12380;51.118;4.176;2023-02-14T04:38:16;3.20;99.90
24252;DHT22;12380;51.118;4.176;2023-02-14T04:40:41;3.10;99.90
24252;DHT22;12380;51.118;4.176;2023-02-14T04:43:09;3.10;99.90
24252;DHT22;12380;51.118;4.176;2023-02-14T04:45:35;3.30;99.90
24252;DHT22;12380;51.118;4.176;2023-02-14T04:48:00;3.30;99.90
24252;DHT22;12380;51.118;4.176;2023-02-14T04:50:26;3.40;99.90
24252;DHT22;12380;51.118;4.176;2023-02-14T04:52:52;3.40;99.90
24252;DHT22;12380;51.118;4.176;2023-02-14T04:55:17;3.40;99.90
24252;DHT22;12380;51.118;4.176;2023-02-14T04:57:45;3.50;99.90
24252;DHT22;12380;51.118;4.176;2023-02-14T05:00:14;3.40;99.90
24252;DHT22;12380;51.118;4.176;2023-02-14T05:02:39;3.40;99.90
24252;DHT22;12380;51.118;4.176;2023-02-14T05:05:05;3.40;99.90
24252;DHT22;12380;51.118;4.176;2023-02-14T05:07:31;3.50;99.90
24252;DHT22;12380;51.118;4.176;2023-02-14T05:09:56;3.40;99.90
24252;DHT22;12380;51.118;4.176;2023-02-14T05:12:22;3.50;99.90
24252;DHT22;12380;51.118;4.176;2023-02-14T05:14:50;3.50;99.90
24252;DHT22;12380;51.118;4.176;2023-02-14T05:17:16;3.40;99.90
24252;DHT22;12380;51.118;4.176;2023-02-14T05:19:41;3.50;99.90
24252;DHT22;12380;51.118;4.176;2023-02-14T05:22:09;3.50;99.90
24252;DHT22;12380;51.118;4.176;2023-02-14T05:24:35;3.50;99.90
24252;DHT22;12380;51.118;4.176;2023-02-14T05:27:00;3.60;99.90
24252;DHT22;12380;51.118;4.176;2023-02-14T05:29:26;3.60;99.90
24252;DHT22;12380;51.118;4.176;2023-02-14T05:31:52;3.60;99.90
24252;DHT22;12380;51.118;4.176;2023-02-14T05:34:17;3.50;99.90
24252;DHT22;12380;51.118;4.176;2023-02-14T05:36:43;3.40;99.90
24252;DHT22;12380;51.118;4.176;2023-02-14T05:39:08;3.40;99.90
24252;DHT22;12380;51.118;4.176;2023-02-14T05:41:39;3.40;99.90
24252;DHT22;12380;51.118;4.176;2023-02-14T05:44:04;3.30;99.90
24252;DHT22;12380;51.118;4.176;2023-02-14T05:46:32;3.40;99.90
24252;DHT22;12380;51.118;4.176;2023-02-14T05:48:58;3.40;99.90
24252;DHT22;12380;51.118;4.176;2023-02-14T05:51:23;3.40;99.90
24252;DHT22;12380;51.118;4.176;2023-02-14T05:53:51;3.40;99.90
24252;DHT22;12380;51.118;4.176;2023-02-14T05:56:17;3.40;99.90
24252;DHT22;12380;51.118;4.176;2023-02-14T05:58:42;3.30;99.90
24252;DHT22;12380;51.118;4.176;2023-02-14T06:01:08;3.40;99.90
24252;DHT22;12380;51.118;4.176;2023-02-14T06:03:34;3.40;99.90
24252;DHT22;12380;51.118;4.176;2023-02-14T06:05:59;3.30;99.90
24252;DHT22;12380;51.118;4.176;2023-02-14T06:08:25;3.30;99.90
24252;DHT22;12380;51.118;4.176;2023-02-14T06:10:53;3.30;99.90
24252;DHT22;12380;51.118;4.176;2023-02-14T06:13:18;3.30;99.90
24252;DHT22;12380;51.118;4.176;2023-02-14T06:15:44;3.10;99.90
24252;DHT22;12380;51.118;4.176;2023-02-14T06:18:09;3.10;99.90
24252;DHT22;12380;51.118;4.176;2023-02-14T06:20:35;3.10;99.90
24252;DHT22;12380;51.118;4.176;2023-02-14T06:23:01;3.10;99.90
24252;DHT22;12380;51.118;4.176;2023-02-14T06:25:26;3.10;99.90
24252;DHT22;12380;51.118;4.176;2023-02-14T06:27:56;3.00;99.90
24252;DHT22;12380;51.118;4.176;2023-02-14T06:30:21;2.80;99.90
24252;DHT22;12380;51.118;4.176;2023-02-14T06:32:47;2.80;99.90
24252;DHT22;12380;51.118;4.176;2023-02-14T06:35:13;3.00;99.90
24252;DHT22;12380;51.118;4.176;2023-02-14T06:37:38;3.10;99.90
24252;DHT22;12380;51.118;4.176;2023-02-14T06:40:05;3.00;99.90
24252;DHT22;12380;51.118;4.176;2023-02-14T06:42:31;3.00;99.90
24252;DHT22;12380;51.118;4.176;2023-02-14T06:44:57;2.90;99.90
24252;DHT22;12380;51.118;4.176;2023-02-14T06:47:22;3.00;99.90
24252;DHT22;12380;51.118;4.176;2023-02-14T06:49:48;3.00;99.90
24252;DHT22;12380;51.118;4.176;2023-02-14T06:52:13;2.90;99.90
24252;DHT22;12380;51.118;4.176;2023-02-14T06:54:39;2.90;99.90
24252;DHT22;12380;51.118;4.176;2023-02-14T06:57:05;2.90;99.90
24252;DHT22;12380;51.118;4.176;2023-02-14T06:59:30;3.00;99.90
24252;DHT22;12380;51.118;4.176;2023-02-14T07:01:58;3.00;99.90
24252;DHT22;12380;51.118;4.176;2023-02-14T07:04:24;3.00;99.90
24252;DHT22;12380;51.118;4.176;2023-02-14T07:06:49;2.90;99.90
24252;DHT22;12380;51.118;4.176;2023-02-14T07:09:15;2.70;99.90
24252;DHT22;12380;51.118;4.176;2023-02-14T07:11:43;2.70;99.90
24252;DHT22;12380;51.118;4.176;2023-02-14T07:14:11;2.70;99.90
24252;DHT22;12380;51.118;4.176;2023-02-14T07:16:37;2.90;99.90
24252;DHT22;12380;51.118;4.176;2023-02-14T07:19:02;3.00;99.90
24252;DHT22;12380;51.118;4.176;2023-02-14T07:21:28;3.00;99.90
24252;DHT22;12380;51.118;4.176;2023-02-14T07:23:53;3.00;99.90
24252;DHT22;12380;51.118;4.176;2023-02-14T07:26:21;3.10;99.90
24252;DHT22;12380;51.118;4.176;2023-02-14T07:28:47;3.10;99.90
24252;DHT22;12380;51.118;4.176;2023-02-14T07:31:14;3.20;99.90
24252;DHT22;12380;51.118;4.176;2023-02-14T07:33:42;3.30;99.90
24252;DHT22;12380;51.118;4.176;2023-02-14T07:36:08;3.40;99.90
24252;DHT22;12380;51.118;4.176;2023-02-14T07:38:34;3.50;99.90
24252;DHT22;12380;51.118;4.176;2023-02-14T07:40:59;3.50;99.90
24252;DHT22;12380;51.118;4.176;2023-02-14T07:43:26;3.40;99.90
24252;DHT22;12380;51.118;4.176;2023-02-14T07:45:51;3.50;99.90
24252;DHT22;12380;51.118;4.176;2023-02-14T07:48:17;3.50;99.90
24252;DHT22;12380;51.118;4.176;2023-02-14T07:50:43;3.60;99.90
24252;DHT22;12380;51.118;4.176;2023-02-14T07:53:08;3.50;99.90
24252;DHT22;12380;51.118;4.176;2023-02-14T07:55:34;3.50;99.90
24252;DHT22;12380;51.118;4.176;2023-02-14T07:58:03;3.50;99.90
24252;DHT22;12380;51.118;4.176;2023-02-14T08:00:29;3.60;99.90
24252;DHT22;12380;51.118;4.176;2023-02-14T08:02:55;3.70;99.90
24252;DHT22;12380;51.118;4.176;2023-02-14T08:05:20;3.80;99.90
24252;DHT22;12380;51.118;4.176;2023-02-14T08:07:46;3.90;99.90
24252;DHT22;12380;51.118;4.176;2023-02-14T08:10:12;3.90;99.90
24252;DHT22;12380;51.118;4.176;2023-02-14T08:12:38;3.90;99.90
24252;DHT22;12380;51.118;4.176;2023-02-14T08:15:23;4.00;99.90
24252;DHT22;12380;51.118;4.176;2023-02-14T08:18:07;4.30;99.90
24252;DHT22;12380;51.118;4.176;2023-02-14T08:20:32;4.40;99.90
24252;DHT22;12380;51.118;4.176;2023-02-14T08:23:00;4.40;99.90
24252;DHT22;12380;51.118;4.176;2023-02-14T08:25:26;4.30;99.90
24252;DHT22;12380;51.118;4.176;2023-02-14T08:27:51;4.50;99.90
24252;DHT22;12380;51.118;4.176;2023-02-14T08:30:19;4.50;99.90
24252;DHT22;12380;51.118;4.176;2023-02-14T08:32:45;4.70;99.90
24252;DHT22;12380;51.118;4.176;2023-02-14T08:35:10;5.40;99.90
24252;DHT22;12380;51.118;4.176;2023-02-14T08:37:36;6.30;99.90
24252;DHT22;12380;51.118;4.176;2023-02-14T08:40:02;6.90;99.90
24252;DHT22;12380;51.118;4.176;2023-02-14T08:42:27;7.80;99.90
24252;DHT22;12380;51.118;4.176;2023-02-14T08:44:56;8.80;99.90
24252;DHT22;12380;51.118;4.176;2023-02-14T08:47:24;9.50;99.90
24252;DHT22;12380;51.118;4.176;2023-02-14T08:49:49;9.60;99.90
24252;DHT22;12380;51.118;4.176;2023-02-14T08:52:15;10.10;99.90
24252;DHT22;12380;51.118;4.176;2023-02-14T08:54:41;9.60;99.90
24252;DHT22;12380;51.118;4.176;2023-02-14T08:57:07;9.60;99.90
24252;DHT22;12380;51.118;4.176;2023-02-14T08:59:32;9.70;99.90
24252;DHT22;12380;51.118;4.176;2023-02-14T09:01:58;10.50;99.90
24252;DHT22;12380;51.118;4.176;2023-02-14T09:04:24;9.60;99.90
24252;DHT22;12380;51.118;4.176;2023-02-14T09:06:52;9.90;99.90
24252;DHT22;12380;51.118;4.176;2023-02-14T09:09:17;9.80;99.90
24252;DHT22;12380;51.118;4.176;2023-02-14T09:11:43;10.20;99.90
24252;DHT22;12380;51.118;4.176;2023-02-14T09:14:09;10.90;99.90
24252;DHT22;12380;51.118;4.176;2023-02-14T09:16:35;11.20;99.90
24252;DHT22;12380;51.118;4.176;2023-02-14T09:19:00;11.20;99.90
24252;DHT22;12380;51.118;4.176;2023-02-14T09:21:26;11.70;99.90
24252;DHT22;12380;51.118;4.176;2023-02-14T09:23:52;11.30;99.90
24252;DHT22;12380;51.118;4.176;2023-02-14T09:26:18;11.10;99.90
24252;DHT22;12380;51.118;4.176;2023-02-14T09:28:44;10.70;99.90
24252;DHT22;12380;51.118;4.176;2023-02-14T09:31:13;11.10;99.90
24252;DHT22;12380;51.118;4.176;2023-02-14T09:33:39;10.90;99.90
24252;DHT22;12380;51.118;4.176;2023-02-14T09:36:05;10.90;99.90
24252;DHT22;12380;51.118;4.176;2023-02-14T09:38:49;10.80;99.90
24252;DHT22;12380;51.118;4.176;2023-02-14T09:46:27;11.10;99.90
24252;DHT22;12380;51.118;4.176;2023-02-14T09:48:53;10.90;99.90
24252;DHT22;12380;51.118;4.176;2023-02-14T09:51:20;10.90;99.90
24252;DHT22;12380;51.118;4.176;2023-02-14T09:53:49;11.40;99.90
24252;DHT22;12380;51.118;4.176;2023-02-14T10:01:25;12.70;99.90
24252;DHT22;12380;51.118;4.176;2023-02-14T10:04:15;12.30;99.90
24252;DHT22;12380;51.118;4.176;2023-02-14T10:12:13;12.40;99.90
24252;DHT22;12380;51.118;4.176;2023-02-14T10:14:40;12.60;99.90
24252;DHT22;12380;51.118;4.176;2023-02-14T10:17:09;12.30;99.90
24252;DHT22;12380;51.118;4.176;2023-02-14T10:19:41;12.40;99.90
24252;DHT22;12380;51.118;4.176;2023-02-14T10:22:13;12.40;99.90
24252;DHT22;12380;51.118;4.176;2023-02-14T10:24:59;12.30;99.90
24252;DHT22;12380;51.118;4.176;2023-02-14T10:29:54;12.90;99.90
24252;DHT22;12380;51.118;4.176;2023-02-14T10:32:26;13.40;99.90
24252;DHT22;12380;51.118;4.176;2023-02-14T10:34:52;13.50;99.90
24252;DHT22;12380;51.118;4.176;2023-02-14T10:42:22;13.60;99.90
24252;DHT22;12380;51.118;4.176;2023-02-14T10:55:37;14.80;99.90
24252;DHT22;12380;51.118;4.176;2023-02-14T10:58:05;15.60;99.90
24252;DHT22;12380;51.118;4.176;2023-02-14T11:00:32;16.50;99.90
24252;DHT22;12380;51.118;4.176;2023-02-14T11:03:01;15.70;99.90
24252;DHT22;12380;51.118;4.176;2023-02-14T11:09:05;14.50;99.90
24252;DHT22;12380;51.118;4.176;2023-02-14T11:13:44;14.50;99.90
24252;DHT22;12380;51.118;4.176;2023-02-14T11:16:11;15.00;99.90
24252;DHT22;12380;51.118;4.176;2023-02-14T11:18:40;15.00;99.90
24252;DHT22;12380;51.118;4.176;2023-02-14T11:26:04;15.90;99.90
24252;DHT22;12380;51.118;4.176;2023-02-14T11:28:31;16.30;99.90
24252;DHT22;12380;51.118;4.176;2023-02-14T11:30:58;15.80;99.90
24252;DHT22;12380;51.118;4.176;2023-02-14T11:35:53;15.20;99.90
24252;DHT22;12380;51.118;4.176;2023-02-14T11:38:27;15.90;99.90
24252;DHT22;12380;51.118;4.176;2023-02-14T11:40:54;16.00;99.90
24252;DHT22;12380;51.118;4.176;2023-02-14T11:43:29;15.90;99.90
24252;DHT22;12380;51.118;4.176;2023-02-14T11:46:12;15.10;99.90
24252;DHT22;12380;51.118;4.176;2023-02-14T11:48:53;15.30;99.90
24252;DHT22;12380;51.118;4.176;2023-02-14T11:51:23;15.20;99.90
24252;DHT22;12380;51.118;4.176;2023-02-14T11:53:50;16.20;99.90
24252;DHT22;12380;51.118;4.176;2023-02-14T11:56:19;15.10;99.90
24252;DHT22;12380;51.118;4.176;2023-02-14T12:01:20;14.20;99.90
24252;DHT22;12380;51.118;4.176;2023-02-14T12:03:46;13.90;99.90
24252;DHT22;12380;51.118;4.176;2023-02-14T12:06:21;14.00;99.90
24252;DHT22;12380;51.118;4.176;2023-02-14T12:08:48;14.50;99.90
24252;DHT22;12380;51.118;4.176;2023-02-14T12:11:17;14.40;99.90
24252;DHT22;12380;51.118;4.176;2023-02-14T12:13:54;14.20;99.90
24252;DHT22;12380;51.118;4.176;2023-02-14T12:16:37;14.10;99.90
24252;DHT22;12380;51.118;4.176;2023-02-14T12:19:11;13.90;99.90
24252;DHT22;12380;51.118;4.176;2023-02-14T12:24:24;14.40;99.90
24252;DHT22;12380;51.118;4.176;2023-02-14T12:31:55;14.60;99.90
24252;DHT22;12380;51.118;4.176;2023-02-14T12:34:23;14.70;99.90
24252;DHT22;12380;51.118;4.176;2023-02-14T12:37:09;14.20;99.90
24252;DHT22;12380;51.118;4.176;2023-02-14T12:54:47;15.60;99.90
24252;DHT22;12380;51.118;4.176;2023-02-14T13:02:27;15.40;99.90
24252;DHT22;12380;51.118;4.176;2023-02-14T13:18:37;16.10;99.90
24252;DHT22;12380;51.118;4.176;2023-02-14T13:21:04;15.60;99.90
24252;DHT22;12380;51.118;4.176;2023-02-14T13:23:33;16.40;99.90
24252;DHT22;12380;51.118;4.176;2023-02-14T13:26:03;15.50;99.90
24252;DHT22;12380;51.118;4.176;2023-02-14T13:28:30;15.60;99.90
24252;DHT22;12380;51.118;4.176;2023-02-14T13:30:59;15.60;99.90
24252;DHT22;12380;51.118;4.176;2023-02-14T13:35:52;15.60;99.90
24252;DHT22;12380;51.118;4.176;2023-02-14T13:38:19;15.70;99.90
24252;DHT22;12380;51.118;4.176;2023-02-14T13:40:45;15.40;99.90
24252;DHT22;12380;51.118;4.176;2023-02-14T13:43:28;16.00;99.90
24252;DHT22;12380;51.118;4.176;2023-02-14T13:45:59;16.00;99.90
24252;DHT22;12380;51.118;4.176;2023-02-14T13:48:27;16.00;99.90
24252;DHT22;12380;51.118;4.176;2023-02-14T13:51:05;16.20;99.90
24252;DHT22;12380;51.118;4.176;2023-02-14T13:53:44;16.70;99.90
24252;DHT22;12380;51.118;4.176;2023-02-14T14:04:00;16.80;99.90
24252;DHT22;12380;51.118;4.176;2023-02-14T14:06:26;16.70;99.90
24252;DHT22;12380;51.118;4.176;2023-02-14T14:08:54;16.50;99.90
24252;DHT22;12380;51.118;4.176;2023-02-14T14:14:00;16.40;99.90
24252;DHT22;12380;51.118;4.176;2023-02-14T14:16:27;16.40;99.90
24252;DHT22;12380;51.118;4.176;2023-02-14T14:21:31;16.00;99.90
24252;DHT22;12380;51.118;4.176;2023-02-14T14:24:20;16.00;99.90
24252;DHT22;12380;51.118;4.176;2023-02-14T14:26:44;16.00;99.90
24252;DHT22;12380;51.118;4.176;2023-02-14T14:29:21;16.20;99.90
24252;DHT22;12380;51.118;4.176;2023-02-14T14:31:49;16.50;99.90
24252;DHT22;12380;51.118;4.176;2023-02-14T14:34:20;16.60;99.90
24252;DHT22;12380;51.118;4.176;2023-02-14T14:36:46;16.40;99.90
24252;DHT22;12380;51.118;4.176;2023-02-14T14:39:11;17.00;99.90
24252;DHT22;12380;51.118;4.176;2023-02-14T14:41:49;17.00;99.90
24252;DHT22;12380;51.118;4.176;2023-02-14T14:44:17;16.30;99.90
24252;DHT22;12380;51.118;4.176;2023-02-14T14:46:43;16.50;99.90
24252;DHT22;12380;51.118;4.176;2023-02-14T14:49:09;16.50;99.90
24252;DHT22;12380;51.118;4.176;2023-02-14T14:51:35;16.60;99.90
24252;DHT22;12380;51.118;4.176;2023-02-14T14:54:01;17.20;99.90
24252;DHT22;12380;51.118;4.176;2023-02-14T14:56:29;17.20;99.90
24252;DHT22;12380;51.118;4.176;2023-02-14T14:58:55;17.60;99.90
24252;DHT22;12380;51.118;4.176;2023-02-14T15:01:28;17.90;99.90
24252;DHT22;12380;51.118;4.176;2023-02-14T15:04:06;18.30;99.90
24252;DHT22;12380;51.118;4.176;2023-02-14T15:06:31;18.10;99.90
24252;DHT22;12380;51.118;4.176;2023-02-14T15:08:57;17.70;99.90
24252;DHT22;12380;51.118;4.176;2023-02-14T15:11:26;17.60;99.90
24252;DHT22;12380;51.118;4.176;2023-02-14T15:14:18;16.90;99.90
24252;DHT22;12380;51.118;4.176;2023-02-14T15:16:51;17.50;99.90
24252;DHT22;12380;51.118;4.176;2023-02-14T15:19:29;17.50;99.90
24252;DHT22;12380;51.118;4.176;2023-02-14T15:22:05;16.50;99.90
24252;DHT22;12380;51.118;4.176;2023-02-14T15:24:32;15.80;99.90
24252;DHT22;12380;51.118;4.176;2023-02-14T15:27:00;15.70;99.90
24252;DHT22;12380;51.118;4.176;2023-02-14T15:29:27;15.80;99.90
24252;DHT22;12380;51.118;4.176;2023-02-14T15:31:53;16.00;99.90
24252;DHT22;12380;51.118;4.176;2023-02-14T15:34:26;16.10;99.90
24252;DHT22;12380;51.118;4.176;2023-02-14T15:36:53;16.50;99.90
24252;DHT22;12380;51.118;4.176;2023-02-14T15:42:30;16.00;99.90
24252;DHT22;12380;51.118;4.176;2023-02-14T15:47:41;15.80;99.90
24252;DHT22;12380;51.118;4.176;2023-02-14T15:50:14;15.90;99.90
24252;DHT22;12380;51.118;4.176;2023-02-14T15:52:43;15.80;99.90
24252;DHT22;12380;51.118;4.176;2023-02-14T15:55:09;15.50;99.90
24252;DHT22;12380;51.118;4.176;2023-02-14T15:57:35;15.70;99.90
24252;DHT22;12380;51.118;4.176;2023-02-14T16:00:04;15.30;99.90
24252;DHT22;12380;51.118;4.176;2023-02-14T16:02:37;15.70;99.90
24252;DHT22;12380;51.118;4.176;2023-02-14T16:07:39;15.70;99.90
24252;DHT22;12380;51.118;4.176;2023-02-14T16:15:20;15.60;99.90
24252;DHT22;12380;51.118;4.176;2023-02-14T16:17:46;15.30;99.90
24252;DHT22;12380;51.118;4.176;2023-02-14T16:20:29;15.30;99.90
24252;DHT22;12380;51.118;4.176;2023-02-14T16:25:42;14.80;99.90
24252;DHT22;12380;51.118;4.176;2023-02-14T16:28:08;14.60;99.90
24252;DHT22;12380;51.118;4.176;2023-02-14T16:30:35;14.40;99.90
24252;DHT22;12380;51.118;4.176;2023-02-14T16:33:04;14.00;99.90
24252;DHT22;12380;51.118;4.176;2023-02-14T16:35:30;13.70;99.90
24252;DHT22;12380;51.118;4.176;2023-02-14T16:37:56;13.50;99.90
24252;DHT22;12380;51.118;4.176;2023-02-14T16:40:22;13.20;99.90
24252;DHT22;12380;51.118;4.176;2023-02-14T16:42:49;13.20;99.90
24252;DHT22;12380;51.118;4.176;2023-02-14T16:45:15;13.10;99.90
24252;DHT22;12380;51.118;4.176;2023-02-14T16:47:41;13.10;99.90
24252;DHT22;12380;51.118;4.176;2023-02-14T16:50:07;12.90;99.90
24252;DHT22;12380;51.118;4.176;2023-02-14T16:52:33;12.80;99.90
24252;DHT22;12380;51.118;4.176;2023-02-14T16:54:59;12.70;99.90
24252;DHT22;12380;51.118;4.176;2023-02-14T16:57:25;12.50;99.90
24252;DHT22;12380;51.118;4.176;2023-02-14T16:59:52;12.40;99.90
24252;DHT22;12380;51.118;4.176;2023-02-14T17:02:18;12.30;99.90
24252;DHT22;12380;51.118;4.176;2023-02-14T17:04:44;12.20;99.90
24252;DHT22;12380;51.118;4.176;2023-02-14T17:07:10;12.10;99.90
24252;DHT22;12380;51.118;4.176;2023-02-14T17:09:40;12.00;99.90
24252;DHT22;12380;51.118;4.176;2023-02-14T17:12:09;11.80;99.90
24252;DHT22;12380;51.118;4.176;2023-02-14T17:14:37;11.70;99.90
24252;DHT22;12380;51.118;4.176;2023-02-14T17:17:03;11.50;99.90
24252;DHT22;12380;51.118;4.176;2023-02-14T17:19:30;11.40;99.90
24252;DHT22;12380;51.118;4.176;2023-02-14T17:21:56;11.30;99.90
24252;DHT22;12380;51.118;4.176;2023-02-14T17:24:22;11.20;99.90
24252;DHT22;12380;51.118;4.176;2023-02-14T17:26:47;11.10;99.90
24252;DHT22;12380;51.118;4.176;2023-02-14T17:29:15;11.00;99.90
24252;DHT22;12380;51.118;4.176;2023-02-14T17:31:43;10.90;99.90
24252;DHT22;12380;51.118;4.176;2023-02-14T17:34:09;10.90;99.90
24252;DHT22;12380;51.118;4.176;2023-02-14T17:36:35;10.80;99.90
24252;DHT22;12380;51.118;4.176;2023-02-14T17:39:02;10.70;99.90
24252;DHT22;12380;51.118;4.176;2023-02-14T17:41:28;10.50;99.90
24252;DHT22;12380;51.118;4.176;2023-02-14T17:43:53;10.50;99.90
24252;DHT22;12380;51.118;4.176;2023-02-14T17:46:19;10.30;99.90
24252;DHT22;12380;51.118;4.176;2023-02-14T17:48:45;10.20;99.90
24252;DHT22;12380;51.118;4.176;2023-02-14T17:51:11;10.10;99.90
24252;DHT22;12380;51.118;4.176;2023-02-14T17:53:38;10.00;99.90
24252;DHT22;12380;51.118;4.176;2023-02-14T17:56:07;9.90;99.90
24252;DHT22;12380;51.118;4.176;2023-02-14T17:58:33;9.90;99.90
24252;DHT22;12380;51.118;4.176;2023-02-14T18:01:05;9.80;99.90
24252;DHT22;12380;51.118;4.176;2023-02-14T18:03:31;9.50;99.90
24252;DHT22;12380;51.118;4.176;2023-02-14T18:06:00;9.10;99.90
24252;DHT22;12380;51.118;4.176;2023-02-14T18:08:29;9.20;99.90
24252;DHT22;12380;51.118;4.176;2023-02-14T18:10:58;9.20;99.90
24252;DHT22;12380;51.118;4.176;2023-02-14T18:13:23;9.20;99.90
24252;DHT22;12380;51.118;4.176;2023-02-14T18:15:49;9.20;99.90
24252;DHT22;12380;51.118;4.176;2023-02-14T18:18:15;9.20;99.90
24252;DHT22;12380;51.118;4.176;2023-02-14T18:20:41;9.10;99.90
24252;DHT22;12380;51.118;4.176;2023-02-14T18:23:07;9.00;99.90
24252;DHT22;12380;51.118;4.176;2023-02-14T18:25:33;9.00;99.90
24252;DHT22;12380;51.118;4.176;2023-02-14T18:27:59;9.00;99.90
24252;DHT22;12380;51.118;4.176;2023-02-14T18:30:24;8.90;99.90
24252;DHT22;12380;51.118;4.176;2023-02-14T18:32:50;8.90;99.90